sensor_id;sensor_type;location;lat;lon;timestamp;P1;durP1;ratioP1;P2;durP2;ratioP2
45011;SDS011;63444;48.148;11.542;2023-07-13T00:01:46;2.97;;;2.40;;
45011;SDS011;63444;48.148;11.542;2023-07-13T00:04:14;2.92;;;2.28;;
45011;SDS011;63444;48.148;11.542;2023-07-13T00:06:41;2.28;;;2.08;;
45011;SDS011;63444;48.148;11.542;2023-07-13T00:09:10;3.00;;;2.40;;
45011;SDS011;63444;48.148;11.542;2023-07-13T00:11:38;3.35;;;2.10;;
45011;SDS011;63444;48.148;11.542;2023-07-13T00:14:03;2.60;;;2.40;;
45011;SDS011;63444;48.148;11.542;2023-07-13T00:16:29;3.00;;;2.38;;
45011;SDS011;63444;48.148;11.542;2023-07-13T00:18:57;2.53;;;2.33;;
45011;SDS011;63444;48.148;11.542;2023-07-13T00:21:25;5.18;;;2.42;;
45011;SDS011;63444;48.148;11.542;2023-07-13T00:23:50;3.08;;;2.17;;
45011;SDS011;63444;48.148;11.542;2023-07-13T00:26:16;3.40;;;2.08;;
45011;SDS011;63444;48.148;11.542;2023-07-13T00:28:42;3.10;;;2.50;;
45011;SDS011;63444;48.148;11.542;2023-07-13T00:31:09;2.25;;;2.05;;
45011;SDS011;63444;48.148;11.542;2023-07-13T00:33:36;2.13;;;1.92;;
45011;SDS011;63444;48.148;11.542;2023-07-13T00:36:03;3.05;;;2.35;;
45011;SDS011;63444;48.148;11.542;2023-07-13T00:38:29;2.33;;;1.90;;
45011;SDS011;63444;48.148;11.542;2023-07-13T00:40:55;3.10;;;2.20;;
45011;SDS011;63444;48.148;11.542;2023-07-13T00:43:21;3.15;;;2.33;;
45011;SDS011;63444;48.148;11.542;2023-07-13T00:48:15;2.63;;;1.90;;
45011;SDS011;63444;48.148;11.542;2023-07-13T00:50:46;4.47;;;2.00;;
45011;SDS011;63444;48.148;11.542;2023-07-13T00:53:15;2.28;;;1.88;;
45011;SDS011;63444;48.148;11.542;2023-07-13T00:55:42;2.10;;;1.90;;
45011;SDS011;63444;48.148;11.542;2023-07-13T00:58:08;2.00;;;1.83;;
45011;SDS011;63444;48.148;11.542;2023-07-13T01:00:34;3.38;;;2.28;;
45011;SDS011;63444;48.148;11.542;2023-07-13T01:03:01;2.67;;;2.00;;
45011;SDS011;63444;48.148;11.542;2023-07-13T01:05:29;2.60;;;2.00;;
45011;SDS011;63444;48.148;11.542;2023-07-13T01:07:57;2.20;;;2.00;;
45011;SDS011;63444;48.148;11.542;2023-07-13T01:10:25;2.13;;;2.03;;
45011;SDS011;63444;48.148;11.542;2023-07-13T01:12:51;1.95;;;1.75;;
45011;SDS011;63444;48.148;11.542;2023-07-13T01:17:58;2.13;;;1.63;;
45011;SDS011;63444;48.148;11.542;2023-07-13T01:20:24;2.40;;;1.63;;
45011;SDS011;63444;48.148;11.542;2023-07-13T01:22:50;1.83;;;1.60;;
45011;SDS011;63444;48.148;11.542;2023-07-13T01:25:15;2.22;;;1.85;;
45011;SDS011;63444;48.148;11.542;2023-07-13T01:27:41;2.13;;;1.80;;
45011;SDS011;63444;48.148;11.542;2023-07-13T01:30:07;3.15;;;2.00;;
45011;SDS011;63444;48.148;11.542;2023-07-13T01:32:33;2.38;;;1.60;;
45011;SDS011;63444;48.148;11.542;2023-07-13T01:34:59;1.88;;;1.65;;
45011;SDS011;63444;48.148;11.542;2023-07-13T01:37:25;2.20;;;2.00;;
45011;SDS011;63444;48.148;11.542;2023-07-13T01:39:51;1.60;;;1.50;;
45011;SDS011;63444;48.148;11.542;2023-07-13T01:42:17;2.05;;;1.67;;
45011;SDS011;63444;48.148;11.542;2023-07-13T01:44:43;2.35;;;1.73;;
45011;SDS011;63444;48.148;11.542;2023-07-13T01:47:09;2.50;;;1.83;;
45011;SDS011;63444;48.148;11.542;2023-07-13T01:49:35;2.95;;;1.95;;
45011;SDS011;63444;48.148;11.542;2023-07-13T01:52:00;2.00;;;1.80;;
45011;SDS011;63444;48.148;11.542;2023-07-13T01:54:26;2.22;;;1.85;;
45011;SDS011;63444;48.148;11.542;2023-07-13T01:56:53;3.33;;;2.05;;
45011;SDS011;63444;48.148;11.542;2023-07-13T01:59:18;2.15;;;1.98;;
45011;SDS011;63444;48.148;11.542;2023-07-13T02:01:45;2.30;;;2.08;;
45011;SDS011;63444;48.148;11.542;2023-07-13T02:04:10;3.30;;;2.17;;
45011;SDS011;63444;48.148;11.542;2023-07-13T02:06:36;2.28;;;2.08;;
45011;SDS011;63444;48.148;11.542;2023-07-13T02:09:01;3.28;;;2.10;;
45011;SDS011;63444;48.148;11.542;2023-07-13T02:11:27;3.97;;;2.40;;
45011;SDS011;63444;48.148;11.542;2023-07-13T02:13:59;3.08;;;2.00;;
45011;SDS011;63444;48.148;11.542;2023-07-13T02:16:26;2.40;;;1.95;;
45011;SDS011;63444;48.148;11.542;2023-07-13T02:18:52;2.30;;;2.05;;
45011;SDS011;63444;48.148;11.542;2023-07-13T02:21:18;4.35;;;2.50;;
45011;SDS011;63444;48.148;11.542;2023-07-13T02:23:45;2.60;;;2.30;;
45011;SDS011;63444;48.148;11.542;2023-07-13T02:26:11;2.75;;;2.00;;
45011;SDS011;63444;48.148;11.542;2023-07-13T02:28:36;2.38;;;2.17;;
45011;SDS011;63444;48.148;11.542;2023-07-13T02:31:04;3.20;;;2.20;;
45011;SDS011;63444;48.148;11.542;2023-07-13T02:33:30;3.50;;;2.30;;
45011;SDS011;63444;48.148;11.542;2023-07-13T02:35:56;2.65;;;2.20;;
45011;SDS011;63444;48.148;11.542;2023-07-13T02:38:21;4.03;;;2.40;;
45011;SDS011;63444;48.148;11.542;2023-07-13T02:40:47;2.65;;;2.45;;
45011;SDS011;63444;48.148;11.542;2023-07-13T02:43:13;2.85;;;2.47;;
45011;SDS011;63444;48.148;11.542;2023-07-13T02:45:43;3.83;;;2.30;;
45011;SDS011;63444;48.148;11.542;2023-07-13T02:48:09;5.15;;;2.80;;
45011;SDS011;63444;48.148;11.542;2023-07-13T02:50:34;3.03;;;2.28;;
45011;SDS011;63444;48.148;11.542;2023-07-13T02:53:00;5.45;;;2.80;;
45011;SDS011;63444;48.148;11.542;2023-07-13T02:55:26;4.07;;;2.85;;
45011;SDS011;63444;48.148;11.542;2023-07-13T02:57:51;4.75;;;3.17;;
45011;SDS011;63444;48.148;11.542;2023-07-13T03:00:17;4.38;;;2.92;;
45011;SDS011;63444;48.148;11.542;2023-07-13T03:02:42;4.70;;;2.90;;
45011;SDS011;63444;48.148;11.542;2023-07-13T03:05:08;3.22;;;2.33;;
45011;SDS011;63444;48.148;11.542;2023-07-13T03:07:37;4.45;;;2.78;;
45011;SDS011;63444;48.148;11.542;2023-07-13T03:10:03;4.65;;;2.95;;
45011;SDS011;63444;48.148;11.542;2023-07-13T03:12:31;3.33;;;2.47;;
45011;SDS011;63444;48.148;11.542;2023-07-13T03:14:57;3.75;;;2.75;;
45011;SDS011;63444;48.148;11.542;2023-07-13T03:17:22;2.85;;;2.40;;
45011;SDS011;63444;48.148;11.542;2023-07-13T03:19:48;3.55;;;2.88;;
45011;SDS011;63444;48.148;11.542;2023-07-13T03:22:17;3.63;;;2.50;;
45011;SDS011;63444;48.148;11.542;2023-07-13T03:24:43;3.85;;;2.80;;
45011;SDS011;63444;48.148;11.542;2023-07-13T03:27:09;3.97;;;2.58;;
45011;SDS011;63444;48.148;11.542;2023-07-13T03:29:35;3.50;;;2.60;;
45011;SDS011;63444;48.148;11.542;2023-07-13T03:32:02;4.18;;;2.67;;
45011;SDS011;63444;48.148;11.542;2023-07-13T03:34:29;2.97;;;2.38;;
45011;SDS011;63444;48.148;11.542;2023-07-13T03:36:55;3.58;;;2.42;;
45011;SDS011;63444;48.148;11.542;2023-07-13T03:39:21;3.10;;;2.42;;
45011;SDS011;63444;48.148;11.542;2023-07-13T03:41:46;4.65;;;2.58;;
45011;SDS011;63444;48.148;11.542;2023-07-13T03:44:12;2.40;;;2.20;;
45011;SDS011;63444;48.148;11.542;2023-07-13T03:46:37;3.50;;;2.60;;
45011;SDS011;63444;48.148;11.542;2023-07-13T03:49:04;3.38;;;2.60;;
45011;SDS011;63444;48.148;11.542;2023-07-13T03:51:31;2.75;;;2.50;;
45011;SDS011;63444;48.148;11.542;2023-07-13T03:53:56;3.13;;;2.70;;
45011;SDS011;63444;48.148;11.542;2023-07-13T03:56:22;3.30;;;2.50;;
45011;SDS011;63444;48.148;11.542;2023-07-13T03:58:49;3.55;;;2.70;;
45011;SDS011;63444;48.148;11.542;2023-07-13T04:01:15;2.78;;;2.38;;
45011;SDS011;63444;48.148;11.542;2023-07-13T04:03:42;3.58;;;2.47;;
45011;SDS011;63444;48.148;11.542;2023-07-13T04:06:12;3.63;;;2.38;;
45011;SDS011;63444;48.148;11.542;2023-07-13T04:08:46;3.67;;;2.58;;
45011;SDS011;63444;48.148;11.542;2023-07-13T04:11:13;3.45;;;2.30;;
45011;SDS011;63444;48.148;11.542;2023-07-13T04:13:39;3.20;;;2.42;;
45011;SDS011;63444;48.148;11.542;2023-07-13T04:16:05;2.47;;;2.20;;
45011;SDS011;63444;48.148;11.542;2023-07-13T04:18:30;2.65;;;2.40;;
45011;SDS011;63444;48.148;11.542;2023-07-13T04:20:56;3.50;;;2.30;;
45011;SDS011;63444;48.148;11.542;2023-07-13T04:23:21;2.50;;;2.13;;
45011;SDS011;63444;48.148;11.542;2023-07-13T04:25:49;3.75;;;2.42;;
45011;SDS011;63444;48.148;11.542;2023-07-13T04:28:17;4.40;;;2.63;;
45011;SDS011;63444;48.148;11.542;2023-07-13T04:30:47;3.10;;;2.35;;
45011;SDS011;63444;48.148;11.542;2023-07-13T04:33:14;2.88;;;2.10;;
45011;SDS011;63444;48.148;11.542;2023-07-13T04:35:41;3.22;;;2.45;;
45011;SDS011;63444;48.148;11.542;2023-07-13T04:38:09;3.13;;;2.22;;
45011;SDS011;63444;48.148;11.542;2023-07-13T04:40:36;2.22;;;2.03;;
45011;SDS011;63444;48.148;11.542;2023-07-13T04:43:02;4.15;;;2.33;;
45011;SDS011;63444;48.148;11.542;2023-07-13T04:45:27;2.78;;;2.20;;
45011;SDS011;63444;48.148;11.542;2023-07-13T04:47:53;2.40;;;2.20;;
45011;SDS011;63444;48.148;11.542;2023-07-13T04:50:18;3.05;;;2.30;;
45011;SDS011;63444;48.148;11.542;2023-07-13T04:52:48;3.13;;;1.98;;
45011;SDS011;63444;48.148;11.542;2023-07-13T04:55:17;2.55;;;2.20;;
45011;SDS011;63444;48.148;11.542;2023-07-13T04:57:43;3.70;;;2.42;;
45011;SDS011;63444;48.148;11.542;2023-07-13T05:00:09;3.85;;;2.10;;
45011;SDS011;63444;48.148;11.542;2023-07-13T05:02:37;2.80;;;2.50;;
45011;SDS011;63444;48.148;11.542;2023-07-13T05:05:03;2.67;;;2.33;;
45011;SDS011;63444;48.148;11.542;2023-07-13T05:07:29;2.83;;;2.10;;
45011;SDS011;63444;48.148;11.542;2023-07-13T05:09:54;2.55;;;1.83;;
45011;SDS011;63444;48.148;11.542;2023-07-13T05:12:21;3.30;;;2.40;;
45011;SDS011;63444;48.148;11.542;2023-07-13T05:14:46;2.40;;;2.17;;
45011;SDS011;63444;48.148;11.542;2023-07-13T05:17:13;3.17;;;2.40;;
45011;SDS011;63444;48.148;11.542;2023-07-13T05:19:39;2.85;;;2.10;;
45011;SDS011;63444;48.148;11.542;2023-07-13T05:22:04;2.53;;;2.20;;
45011;SDS011;63444;48.148;11.542;2023-07-13T05:24:30;5.45;;;2.55;;
45011;SDS011;63444;48.148;11.542;2023-07-13T05:26:56;3.15;;;2.22;;
45011;SDS011;63444;48.148;11.542;2023-07-13T05:29:21;2.70;;;2.17;;
45011;SDS011;63444;48.148;11.542;2023-07-13T05:31:47;2.80;;;2.28;;
45011;SDS011;63444;48.148;11.542;2023-07-13T05:34:14;2.50;;;2.10;;
45011;SDS011;63444;48.148;11.542;2023-07-13T05:36:40;3.83;;;2.13;;
45011;SDS011;63444;48.148;11.542;2023-07-13T05:39:06;3.65;;;2.65;;
45011;SDS011;63444;48.148;11.542;2023-07-13T05:41:31;3.53;;;2.33;;
45011;SDS011;63444;48.148;11.542;2023-07-13T05:43:57;2.60;;;2.40;;
45011;SDS011;63444;48.148;11.542;2023-07-13T05:46:23;4.05;;;2.45;;
45011;SDS011;63444;48.148;11.542;2023-07-13T05:48:48;3.78;;;2.78;;
45011;SDS011;63444;48.148;11.542;2023-07-13T05:51:14;3.05;;;2.13;;
45011;SDS011;63444;48.148;11.542;2023-07-13T05:53:42;2.58;;;2.13;;
45011;SDS011;63444;48.148;11.542;2023-07-13T05:56:08;2.72;;;2.40;;
45011;SDS011;63444;48.148;11.542;2023-07-13T05:58:33;4.68;;;2.50;;
45011;SDS011;63444;48.148;11.542;2023-07-13T06:01:01;2.78;;;2.20;;
45011;SDS011;63444;48.148;11.542;2023-07-13T06:03:29;3.58;;;2.47;;
45011;SDS011;63444;48.148;11.542;2023-07-13T06:05:55;2.72;;;1.98;;
45011;SDS011;63444;48.148;11.542;2023-07-13T06:08:25;4.30;;;2.47;;
45011;SDS011;63444;48.148;11.542;2023-07-13T06:10:51;3.30;;;2.28;;
45011;SDS011;63444;48.148;11.542;2023-07-13T06:13:16;2.55;;;2.33;;
45011;SDS011;63444;48.148;11.542;2023-07-13T06:15:44;4.13;;;2.60;;
45011;SDS011;63444;48.148;11.542;2023-07-13T06:18:13;3.35;;;2.30;;
45011;SDS011;63444;48.148;11.542;2023-07-13T06:20:39;4.32;;;2.58;;
45011;SDS011;63444;48.148;11.542;2023-07-13T06:23:05;2.97;;;2.38;;
45011;SDS011;63444;48.148;11.542;2023-07-13T06:25:30;5.05;;;2.55;;
45011;SDS011;63444;48.148;11.542;2023-07-13T06:27:56;3.75;;;2.28;;
45011;SDS011;63444;48.148;11.542;2023-07-13T06:30:22;4.47;;;2.30;;
45011;SDS011;63444;48.148;11.542;2023-07-13T06:32:48;4.38;;;2.13;;
45011;SDS011;63444;48.148;11.542;2023-07-13T06:35:14;4.78;;;2.33;;
45011;SDS011;63444;48.148;11.542;2023-07-13T06:37:40;3.95;;;2.30;;
45011;SDS011;63444;48.148;11.542;2023-07-13T06:40:06;3.78;;;2.45;;
45011;SDS011;63444;48.148;11.542;2023-07-13T06:42:32;4.50;;;2.30;;
45011;SDS011;63444;48.148;11.542;2023-07-13T06:44:58;3.20;;;2.10;;
45011;SDS011;63444;48.148;11.542;2023-07-13T06:47:23;3.47;;;2.30;;
45011;SDS011;63444;48.148;11.542;2023-07-13T06:49:49;2.67;;;1.92;;
45011;SDS011;63444;48.148;11.542;2023-07-13T06:52:14;3.78;;;2.53;;
45011;SDS011;63444;48.148;11.542;2023-07-13T06:54:40;3.38;;;2.05;;
45011;SDS011;63444;48.148;11.542;2023-07-13T06:57:06;5.25;;;2.05;;
45011;SDS011;63444;48.148;11.542;2023-07-13T06:59:32;2.85;;;2.00;;
45011;SDS011;63444;48.148;11.542;2023-07-13T07:01:58;5.45;;;2.13;;
45011;SDS011;63444;48.148;11.542;2023-07-13T07:04:23;3.30;;;2.00;;
45011;SDS011;63444;48.148;11.542;2023-07-13T07:06:49;4.22;;;1.92;;
45011;SDS011;63444;48.148;11.542;2023-07-13T07:09:14;3.38;;;1.98;;
45011;SDS011;63444;48.148;11.542;2023-07-13T07:11:41;4.50;;;2.30;;
45011;SDS011;63444;48.148;11.542;2023-07-13T07:14:07;3.25;;;2.10;;
45011;SDS011;63444;48.148;11.542;2023-07-13T07:16:33;3.10;;;1.95;;
45011;SDS011;63444;48.148;11.542;2023-07-13T07:18:58;2.97;;;1.92;;
45011;SDS011;63444;48.148;11.542;2023-07-13T07:21:24;3.10;;;2.00;;
45011;SDS011;63444;48.148;11.542;2023-07-13T07:23:51;3.15;;;1.98;;
45011;SDS011;63444;48.148;11.542;2023-07-13T07:26:19;4.68;;;2.30;;
45011;SDS011;63444;48.148;11.542;2023-07-13T07:28:44;3.25;;;2.13;;
45011;SDS011;63444;48.148;11.542;2023-07-13T07:31:10;6.75;;;2.20;;
45011;SDS011;63444;48.148;11.542;2023-07-13T07:33:36;4.05;;;2.17;;
45011;SDS011;63444;48.148;11.542;2023-07-13T07:36:02;5.15;;;2.40;;
45011;SDS011;63444;48.148;11.542;2023-07-13T07:38:29;4.15;;;2.30;;
45011;SDS011;63444;48.148;11.542;2023-07-13T07:40:55;4.78;;;1.88;;
45011;SDS011;63444;48.148;11.542;2023-07-13T07:43:20;3.58;;;2.20;;
45011;SDS011;63444;48.148;11.542;2023-07-13T07:45:46;2.65;;;2.30;;
45011;SDS011;63444;48.148;11.542;2023-07-13T07:48:11;3.53;;;2.20;;
45011;SDS011;63444;48.148;11.542;2023-07-13T07:50:37;3.78;;;2.00;;
45011;SDS011;63444;48.148;11.542;2023-07-13T07:53:03;4.90;;;2.08;;
45011;SDS011;63444;48.148;11.542;2023-07-13T07:55:32;4.47;;;2.28;;
45011;SDS011;63444;48.148;11.542;2023-07-13T07:57:59;5.28;;;2.00;;
45011;SDS011;63444;48.148;11.542;2023-07-13T08:00:24;3.67;;;2.20;;
45011;SDS011;63444;48.148;11.542;2023-07-13T08:02:50;3.45;;;2.03;;
45011;SDS011;63444;48.148;11.542;2023-07-13T08:05:17;4.00;;;2.42;;
45011;SDS011;63444;48.148;11.542;2023-07-13T08:07:43;3.65;;;2.03;;
45011;SDS011;63444;48.148;11.542;2023-07-13T08:10:09;4.03;;;2.20;;
45011;SDS011;63444;48.148;11.542;2023-07-13T08:12:35;3.20;;;2.00;;
45011;SDS011;63444;48.148;11.542;2023-07-13T08:15:05;5.53;;;2.38;;
45011;SDS011;63444;48.148;11.542;2023-07-13T08:17:33;3.83;;;2.20;;
45011;SDS011;63444;48.148;11.542;2023-07-13T08:20:00;2.28;;;1.83;;
45011;SDS011;63444;48.148;11.542;2023-07-13T08:22:26;1.95;;;1.85;;
45011;SDS011;63444;48.148;11.542;2023-07-13T08:24:52;4.47;;;2.10;;
45011;SDS011;63444;48.148;11.542;2023-07-13T08:27:21;3.75;;;2.10;;
45011;SDS011;63444;48.148;11.542;2023-07-13T08:29:50;3.15;;;2.00;;
45011;SDS011;63444;48.148;11.542;2023-07-13T08:32:16;3.45;;;2.20;;
45011;SDS011;63444;48.148;11.542;2023-07-13T08:34:43;4.00;;;2.30;;
45011;SDS011;63444;48.148;11.542;2023-07-13T08:37:09;3.25;;;2.25;;
45011;SDS011;63444;48.148;11.542;2023-07-13T08:39:35;2.60;;;1.75;;
45011;SDS011;63444;48.148;11.542;2023-07-13T08:42:05;3.42;;;1.92;;
45011;SDS011;63444;48.148;11.542;2023-07-13T08:47:07;3.72;;;1.70;;
45011;SDS011;63444;48.148;11.542;2023-07-13T08:49:34;3.80;;;1.80;;
45011;SDS011;63444;48.148;11.542;2023-07-13T08:54:53;6.18;;;1.85;;
45011;SDS011;63444;48.148;11.542;2023-07-13T08:57:24;2.00;;;1.55;;
45011;SDS011;63444;48.148;11.542;2023-07-13T08:59:56;3.10;;;1.90;;
45011;SDS011;63444;48.148;11.542;2023-07-13T09:05:10;3.35;;;1.90;;
45011;SDS011;63444;48.148;11.542;2023-07-13T09:11:23;3.20;;;1.65;;
45011;SDS011;63444;48.148;11.542;2023-07-13T09:13:44;3.40;;;1.65;;
45011;SDS011;63444;48.148;11.542;2023-07-13T09:16:15;2.35;;;1.65;;
45011;SDS011;63444;48.148;11.542;2023-07-13T09:18:42;3.63;;;1.65;;
45011;SDS011;63444;48.148;11.542;2023-07-13T09:21:17;3.80;;;1.70;;
45011;SDS011;63444;48.148;11.542;2023-07-13T09:23:47;3.75;;;2.28;;
45011;SDS011;63444;48.148;11.542;2023-07-13T09:26:18;2.05;;;1.70;;
45011;SDS011;63444;48.148;11.542;2023-07-13T09:28:46;3.03;;;1.75;;
45011;SDS011;63444;48.148;11.542;2023-07-13T09:31:15;5.07;;;1.70;;
45011;SDS011;63444;48.148;11.542;2023-07-13T09:33:48;4.85;;;1.92;;
45011;SDS011;63444;48.148;11.542;2023-07-13T09:36:17;3.78;;;1.67;;
45011;SDS011;63444;48.148;11.542;2023-07-13T09:38:57;4.38;;;1.73;;
45011;SDS011;63444;48.148;11.542;2023-07-13T09:46:39;2.47;;;1.38;;
45011;SDS011;63444;48.148;11.542;2023-07-13T09:49:17;2.92;;;1.70;;
45011;SDS011;63444;48.148;11.542;2023-07-13T09:51:43;4.28;;;1.80;;
45011;SDS011;63444;48.148;11.542;2023-07-13T09:54:19;3.53;;;1.60;;
45011;SDS011;63444;48.148;11.542;2023-07-13T09:56:45;3.08;;;1.33;;
45011;SDS011;63444;48.148;11.542;2023-07-13T09:59:21;3.78;;;1.60;;
45011;SDS011;63444;48.148;11.542;2023-07-13T10:01:49;2.47;;;1.50;;
45011;SDS011;63444;48.148;11.542;2023-07-13T10:04:18;3.28;;;1.50;;
45011;SDS011;63444;48.148;11.542;2023-07-13T10:06:45;2.30;;;1.50;;
45011;SDS011;63444;48.148;11.542;2023-07-13T10:09:15;1.40;;;1.30;;
45011;SDS011;63444;48.148;11.542;2023-07-13T10:11:42;2.60;;;1.40;;
45011;SDS011;63444;48.148;11.542;2023-07-13T10:14:14;1.90;;;1.20;;
45011;SDS011;63444;48.148;11.542;2023-07-13T10:16:42;3.83;;;1.45;;
45011;SDS011;63444;48.148;11.542;2023-07-13T10:21:58;3.75;;;1.48;;
45011;SDS011;63444;48.148;11.542;2023-07-13T10:24:26;3.38;;;1.40;;
45011;SDS011;63444;48.148;11.542;2023-07-13T10:32:13;2.50;;;1.30;;
45011;SDS011;63444;48.148;11.542;2023-07-13T10:34:43;2.42;;;1.33;;
45011;SDS011;63444;48.148;11.542;2023-07-13T10:37:16;2.88;;;1.30;;
45011;SDS011;63444;48.148;11.542;2023-07-13T10:39:45;3.38;;;1.60;;
45011;SDS011;63444;48.148;11.542;2023-07-13T10:42:13;3.75;;;1.38;;
45011;SDS011;63444;48.148;11.542;2023-07-13T10:44:47;2.28;;;1.35;;
45011;SDS011;63444;48.148;11.542;2023-07-13T10:47:13;3.30;;;1.75;;
45011;SDS011;63444;48.148;11.542;2023-07-13T10:49:41;3.72;;;1.52;;
45011;SDS011;63444;48.148;11.542;2023-07-13T10:52:35;5.57;;;1.42;;
45011;SDS011;63444;48.148;11.542;2023-07-13T10:56:19;3.17;;;1.40;;
45011;SDS011;63444;48.148;11.542;2023-07-13T11:00:46;3.05;;;1.40;;
45011;SDS011;63444;48.148;11.542;2023-07-13T11:03:33;3.63;;;1.30;;
45011;SDS011;63444;48.148;11.542;2023-07-13T11:06:09;5.07;;;1.80;;
45011;SDS011;63444;48.148;11.542;2023-07-13T11:18:51;4.28;;;1.80;;
45011;SDS011;63444;48.148;11.542;2023-07-13T11:21:19;2.75;;;1.60;;
45011;SDS011;63444;48.148;11.542;2023-07-13T11:24:14;3.10;;;1.50;;
45011;SDS011;63444;48.148;11.542;2023-07-13T11:26:43;3.80;;;1.70;;
45011;SDS011;63444;48.148;11.542;2023-07-13T11:31:56;1.90;;;1.50;;
45011;SDS011;63444;48.148;11.542;2023-07-13T11:37:02;2.65;;;1.50;;
45011;SDS011;63444;48.148;11.542;2023-07-13T11:39:29;2.13;;;1.40;;
45011;SDS011;63444;48.148;11.542;2023-07-13T11:42:02;3.65;;;1.30;;
45011;SDS011;63444;48.148;11.542;2023-07-13T11:44:32;3.78;;;1.58;;
45011;SDS011;63444;48.148;11.542;2023-07-13T11:46:59;1.52;;;1.35;;
45011;SDS011;63444;48.148;11.542;2023-07-13T11:49:40;1.98;;;1.30;;
45011;SDS011;63444;48.148;11.542;2023-07-13T11:52:19;3.83;;;1.55;;
45011;SDS011;63444;48.148;11.542;2023-07-13T11:54:49;2.42;;;1.40;;
45011;SDS011;63444;48.148;11.542;2023-07-13T11:57:26;3.50;;;1.70;;
45011;SDS011;63444;48.148;11.542;2023-07-13T11:59:56;3.13;;;1.60;;
45011;SDS011;63444;48.148;11.542;2023-07-13T12:04:55;2.70;;;1.50;;
45011;SDS011;63444;48.148;11.542;2023-07-13T12:07:22;4.82;;;1.77;;
45011;SDS011;63444;48.148;11.542;2023-07-13T12:09:48;4.80;;;1.75;;
45011;SDS011;63444;48.148;11.542;2023-07-13T12:12:20;2.47;;;1.45;;
45011;SDS011;63444;48.148;11.542;2023-07-13T12:14:50;5.90;;;1.50;;
45011;SDS011;63444;48.148;11.542;2023-07-13T12:17:20;4.07;;;1.48;;
45011;SDS011;63444;48.148;11.542;2023-07-13T12:19:48;4.13;;;1.50;;
45011;SDS011;63444;48.148;11.542;2023-07-13T12:22:16;4.80;;;1.52;;
45011;SDS011;63444;48.148;11.542;2023-07-13T12:24:44;1.70;;;1.38;;
45011;SDS011;63444;48.148;11.542;2023-07-13T12:29:51;2.25;;;1.40;;
45011;SDS011;63444;48.148;11.542;2023-07-13T12:32:19;2.70;;;1.40;;
45011;SDS011;63444;48.148;11.542;2023-07-13T12:34:54;3.80;;;2.00;;
45011;SDS011;63444;48.148;11.542;2023-07-13T12:37:21;3.17;;;1.48;;
45011;SDS011;63444;48.148;11.542;2023-07-13T12:39:47;4.18;;;1.73;;
45011;SDS011;63444;48.148;11.542;2023-07-13T12:42:25;3.05;;;1.65;;
45011;SDS011;63444;48.148;11.542;2023-07-13T12:44:53;3.75;;;1.58;;
45011;SDS011;63444;48.148;11.542;2023-07-13T12:47:25;2.22;;;1.38;;
45011;SDS011;63444;48.148;11.542;2023-07-13T12:49:55;2.50;;;1.85;;
45011;SDS011;63444;48.148;11.542;2023-07-13T12:52:24;4.93;;;2.25;;
45011;SDS011;63444;48.148;11.542;2023-07-13T12:54:59;6.20;;;1.65;;
45011;SDS011;63444;48.148;11.542;2023-07-13T12:57:55;2.40;;;1.50;;
45011;SDS011;63444;48.148;11.542;2023-07-13T13:00:32;4.18;;;1.90;;
45011;SDS011;63444;48.148;11.542;2023-07-13T13:08:28;2.88;;;1.50;;
45011;SDS011;63444;48.148;11.542;2023-07-13T13:10:54;4.93;;;1.60;;
45011;SDS011;63444;48.148;11.542;2023-07-13T13:13:20;2.53;;;1.45;;
45011;SDS011;63444;48.148;11.542;2023-07-13T13:15:45;7.10;;;1.40;;
45011;SDS011;63444;48.148;11.542;2023-07-13T13:18:18;3.97;;;1.40;;
45011;SDS011;63444;48.148;11.542;2023-07-13T13:20:49;2.35;;;1.50;;
45011;SDS011;63444;48.148;11.542;2023-07-13T13:23:18;2.38;;;1.30;;
45011;SDS011;63444;48.148;11.542;2023-07-13T13:25:45;3.53;;;1.30;;
45011;SDS011;63444;48.148;11.542;2023-07-13T13:28:14;2.03;;;1.50;;
45011;SDS011;63444;48.148;11.542;2023-07-13T13:30:45;3.58;;;1.50;;
45011;SDS011;63444;48.148;11.542;2023-07-13T13:33:13;2.83;;;1.42;;
45011;SDS011;63444;48.148;11.542;2023-07-13T13:35:42;3.65;;;1.42;;
45011;SDS011;63444;48.148;11.542;2023-07-13T13:38:15;6.38;;;1.63;;
45011;SDS011;63444;48.148;11.542;2023-07-13T13:40:50;3.38;;;1.60;;
45011;SDS011;63444;48.148;11.542;2023-07-13T13:43:21;3.13;;;1.42;;
45011;SDS011;63444;48.148;11.542;2023-07-13T13:45:57;1.48;;;1.33;;
45011;SDS011;63444;48.148;11.542;2023-07-13T13:48:33;2.50;;;1.40;;
45011;SDS011;63444;48.148;11.542;2023-07-13T13:51:01;2.28;;;1.50;;
45011;SDS011;63444;48.148;11.542;2023-07-13T13:53:35;3.33;;;1.70;;
45011;SDS011;63444;48.148;11.542;2023-07-13T13:56:01;4.38;;;1.50;;
45011;SDS011;63444;48.148;11.542;2023-07-13T13:58:28;3.97;;;1.70;;
45011;SDS011;63444;48.148;11.542;2023-07-13T14:00:54;2.70;;;1.40;;
45011;SDS011;63444;48.148;11.542;2023-07-13T14:03:20;2.28;;;1.75;;
45011;SDS011;63444;48.148;11.542;2023-07-13T14:05:47;3.33;;;1.52;;
45011;SDS011;63444;48.148;11.542;2023-07-13T14:08:17;2.45;;;1.42;;
45011;SDS011;63444;48.148;11.542;2023-07-13T14:10:45;4.55;;;1.52;;
45011;SDS011;63444;48.148;11.542;2023-07-13T14:13:19;1.77;;;1.30;;
45011;SDS011;63444;48.148;11.542;2023-07-13T14:15:51;2.53;;;1.40;;
45011;SDS011;63444;48.148;11.542;2023-07-13T14:18:17;4.63;;;1.50;;
45011;SDS011;63444;48.148;11.542;2023-07-13T14:20:43;2.05;;;1.33;;
45011;SDS011;63444;48.148;11.542;2023-07-13T14:23:11;4.03;;;1.60;;
45011;SDS011;63444;48.148;11.542;2023-07-13T14:25:41;2.35;;;1.40;;
45011;SDS011;63444;48.148;11.542;2023-07-13T14:28:26;1.95;;;1.40;;
45011;SDS011;63444;48.148;11.542;2023-07-13T14:30:52;2.85;;;1.38;;
45011;SDS011;63444;48.148;11.542;2023-07-13T14:33:19;1.88;;;1.20;;
45011;SDS011;63444;48.148;11.542;2023-07-13T14:35:45;3.55;;;1.50;;
45011;SDS011;63444;48.148;11.542;2023-07-13T14:38:12;2.50;;;1.58;;
45011;SDS011;63444;48.148;11.542;2023-07-13T14:40:40;3.60;;;1.60;;
45011;SDS011;63444;48.148;11.542;2023-07-13T14:43:09;1.52;;;1.40;;
45011;SDS011;63444;48.148;11.542;2023-07-13T14:45:48;2.58;;;1.50;;
45011;SDS011;63444;48.148;11.542;2023-07-13T14:48:17;4.15;;;1.67;;
45011;SDS011;63444;48.148;11.542;2023-07-13T14:50:46;2.95;;;1.50;;
45011;SDS011;63444;48.148;11.542;2023-07-13T14:53:12;2.33;;;1.30;;
45011;SDS011;63444;48.148;11.542;2023-07-13T14:55:39;2.50;;;1.50;;
45011;SDS011;63444;48.148;11.542;2023-07-13T14:58:04;2.30;;;1.60;;
45011;SDS011;63444;48.148;11.542;2023-07-13T15:00:31;2.00;;;1.30;;
45011;SDS011;63444;48.148;11.542;2023-07-13T15:02:58;2.10;;;1.38;;
45011;SDS011;63444;48.148;11.542;2023-07-13T15:05:26;3.45;;;1.42;;
45011;SDS011;63444;48.148;11.542;2023-07-13T15:07:56;4.28;;;1.65;;
45011;SDS011;63444;48.148;11.542;2023-07-13T15:10:28;2.95;;;1.50;;
45011;SDS011;63444;48.148;11.542;2023-07-13T15:15:42;2.80;;;1.70;;
45011;SDS011;63444;48.148;11.542;2023-07-13T15:18:11;3.33;;;1.58;;
45011;SDS011;63444;48.148;11.542;2023-07-13T15:20:37;3.90;;;1.50;;
45011;SDS011;63444;48.148;11.542;2023-07-13T15:23:03;2.05;;;1.30;;
45011;SDS011;63444;48.148;11.542;2023-07-13T15:25:30;3.00;;;1.50;;
45011;SDS011;63444;48.148;11.542;2023-07-13T15:27:58;2.58;;;1.33;;
45011;SDS011;63444;48.148;11.542;2023-07-13T15:33:11;3.30;;;1.63;;
45011;SDS011;63444;48.148;11.542;2023-07-13T15:35:39;1.95;;;1.40;;
45011;SDS011;63444;48.148;11.542;2023-07-13T15:38:16;3.05;;;1.33;;
45011;SDS011;63444;48.148;11.542;2023-07-13T15:40:43;4.40;;;1.48;;
45011;SDS011;63444;48.148;11.542;2023-07-13T15:43:12;1.98;;;1.35;;